Time;durP1;ratioP1;P1;durP2;ratioP2;P2;SDS_P1;SDS_P2;PMS_P1;PMS_P2;Temp;Humidity;BMP_temperature;BMP_pressure;BME280_temperature;BME280_humidity;BME280_pressure;Samples;Min_cycle;Max_cycle;Signal;HPM_P1;HPM_P2
2021/12/17 00:04:37;;;;;;;19.45;9.57;;;;;;;;;;4843293;29;20057;-67
2021/12/17 00:07:05;;;;;;;16.38;9.20;;;;;;;;;;4843090;29;20038;-67
2021/12/17 00:09:31;;;;;;;18.88;10.00;;;;;;;;;;4842713;29;20036;-68
2021/12/17 00:11:58;;;;;;;18.58;10.02;;;;;;;;;;4842911;29;20112;-70
2021/12/17 00:14:29;;;;;;;20.08;11.18;;;;;;;;;;4842915;29;20034;-70
2021/12/17 00:17:01;;;;;;;22.80;11.35;;;;;;;;;;4843009;29;20709;-68
2021/12/17 00:49:33;;;;;;;12.88;8.05;;;;;;;;;;4842526;29;20406;-65
2021/12/17 00:52:01;;;;;;;13.50;7.90;;;;;;;;;;4841987;29;20096;-65
2021/12/17 00:54:36;;;;;;;13.32;8.18;;;;;;;;;;4856279;29;20075;-65
2021/12/17 00:57:08;;;;;;;11.98;7.40;;;;;;;;;;4839990;29;20087;-71
2021/12/17 00:59:34;;;;;;;10.80;7.03;;;;;;;;;;4838974;29;20038;-68
2021/12/17 01:02:04;;;;;;;13.98;6.60;;;;;;;;;;4840662;29;20081;-66
2021/12/17 01:04:31;;;;;;;12.18;6.50;;;;;;;;;;4840667;29;20045;-68
2021/12/17 01:06:57;;;;;;;11.65;6.22;;;;;;;;;;4840461;29;20164;-68
2021/12/17 01:09:26;;;;;;;10.75;6.43;;;;;;;;;;4840568;29;20510;-67
2021/12/17 01:11:55;;;;;;;10.70;6.53;;;;;;;;;;4840651;29;20409;-70
2021/12/17 01:14:40;;;;;;;13.38;6.82;;;;;;;;;;4840234;29;20036;-69
2021/12/17 01:17:20;;;;;;;10.45;5.78;;;;;;;;;;4840473;29;20053;-67
2021/12/17 01:35:20;;;;;;;10.50;6.60;;;;;;;;;;4840163;29;20094;-71
2021/12/17 01:42:59;;;;;;;12.98;7.65;;;;;;;;;;4841156;29;20067;-67
2021/12/17 01:45:29;;;;;;;12.65;7.55;;;;;;;;;;4839819;29;20034;-66
2021/12/17 01:47:58;;;;;;;14.27;7.10;;;;;;;;;;4841089;29;20042;-67
2021/12/17 02:01:37;;;;;;;10.88;6.65;;;;;;;;;;4839947;29;20085;-67
2021/12/17 02:04:04;;;;;;;12.05;7.18;;;;;;;;;;4839975;29;20141;-66
2021/12/17 02:06:37;;;;;;;15.60;8.30;;;;;;;;;;4840588;29;20077;-66
2021/12/17 02:09:20;;;;;;;15.40;9.30;;;;;;;;;;4841100;29;20038;-66
2021/12/17 02:20:39;;;;;;;17.02;10.18;;;;;;;;;;4839458;29;20042;-65
2021/12/17 02:30:01;;;;;;;16.58;10.00;;;;;;;;;;4840236;29;20429;-66
2021/12/17 02:31:59;;;;;;;18.38;10.40;;;;;;;;;;4836269;29;20498;-67
2021/12/17 02:37:18;;;;;;;17.23;9.52;;;;;;;;;;4844126;29;20054;-67
2021/12/17 02:45:37;;;;;;;17.75;10.00;;;;;;;;;;4843788;29;20064;-66
2021/12/17 02:48:15;;;;;;;16.15;9.80;;;;;;;;;;4843889;29;20034;-69
2021/12/17 02:50:45;;;;;;;17.13;9.90;;;;;;;;;;4843781;29;20134;-65
2021/12/17 02:53:13;;;;;;;20.02;10.40;;;;;;;;;;4845768;29;20557;-66
2021/12/17 02:55:40;;;;;;;18.80;9.98;;;;;;;;;;4843549;29;20113;-67
2021/12/17 02:58:08;;;;;;;16.45;9.90;;;;;;;;;;4844693;29;20042;-66
2021/12/17 03:00:35;;;;;;;15.48;8.35;;;;;;;;;;4840618;29;20501;-69
2021/12/17 03:03:04;;;;;;;20.02;9.50;;;;;;;;;;4826272;29;20084;-65
2021/12/17 03:05:30;;;;;;;15.60;8.85;;;;;;;;;;4840166;29;20045;-71
2021/12/17 03:07:56;;;;;;;18.70;10.45;;;;;;;;;;4826182;29;20047;-65
2021/12/17 03:10:24;;;;;;;18.30;11.95;;;;;;;;;;4826298;29;20040;-66
2021/12/17 03:12:55;;;;;;;21.85;11.70;;;;;;;;;;4825299;29;20034;-66
2021/12/17 03:18:30;;;;;;;19.20;11.43;;;;;;;;;;4845638;29;20033;-65
2021/12/17 03:26:03;;;;;;;17.85;10.70;;;;;;;;;;4842489;29;20033;-64
2021/12/17 03:28:31;;;;;;;20.52;10.88;;;;;;;;;;4856484;29;20057;-67
2021/12/17 03:30:58;;;;;;;17.67;9.60;;;;;;;;;;4825397;29;20478;-65
2021/12/17 03:33:24;;;;;;;16.13;10.27;;;;;;;;;;4824239;29;20129;-65
2021/12/17 03:35:50;;;;;;;26.83;12.93;;;;;;;;;;4824194;29;20125;-66
2021/12/17 03:38:17;;;;;;;30.70;11.98;;;;;;;;;;4824757;29;20039;-64
2021/12/17 03:40:45;;;;;;;25.27;11.18;;;;;;;;;;4824961;29;20030;-65
2021/12/17 03:43:23;;;;;;;17.52;10.07;;;;;;;;;;4839978;29;20121;-65
2021/12/17 03:45:50;;;;;;;24.75;11.25;;;;;;;;;;4840988;29;20031;-64
2021/12/17 03:48:16;;;;;;;30.65;11.52;;;;;;;;;;4825753;29;20041;-66
2021/12/17 03:50:43;;;;;;;21.23;11.60;;;;;;;;;;4823382;29;20045;-66
2021/12/17 03:53:09;;;;;;;20.73;12.15;;;;;;;;;;4823516;29;20113;-65
2021/12/17 03:55:37;;;;;;;20.40;11.07;;;;;;;;;;4840227;29;20049;-66
2021/12/17 03:58:05;;;;;;;26.67;11.57;;;;;;;;;;4823517;29;20087;-66
2021/12/17 04:00:34;;;;;;;26.50;11.52;;;;;;;;;;4839186;29;20042;-66
2021/12/17 04:03:03;;;;;;;26.25;13.45;;;;;;;;;;4823295;29;20547;-65
2021/12/17 04:05:46;;;;;;;26.88;12.18;;;;;;;;;;4823446;29;20054;-65
2021/12/17 04:08:41;;;;;;;27.92;13.13;;;;;;;;;;4824924;29;20062;-65
2021/12/17 04:11:42;;;;;;;28.52;12.85;;;;;;;;;;4820879;29;20046;-65
2021/12/17 04:14:14;;;;;;;27.98;12.48;;;;;;;;;;4833032;29;20041;-66
2021/12/17 04:16:52;;;;;;;23.98;12.57;;;;;;;;;;4841204;29;20078;-65
2021/12/17 04:19:17;;;;;;;29.42;13.38;;;;;;;;;;4840878;29;20094;-65
2021/12/17 04:21:43;;;;;;;22.98;11.80;;;;;;;;;;4841524;29;20040;-66
2021/12/17 04:24:09;;;;;;;23.10;12.55;;;;;;;;;;4841674;29;20094;-66
2021/12/17 04:26:35;;;;;;;22.13;12.27;;;;;;;;;;4841560;29;20049;-65
2021/12/17 04:29:10;;;;;;;28.20;12.40;;;;;;;;;;4841146;29;20512;-65
2021/12/17 04:31:35;;;;;;;30.83;14.40;;;;;;;;;;4841475;29;20102;-66
2021/12/17 04:34:02;;;;;;;24.50;13.85;;;;;;;;;;4841356;29;20072;-65
2021/12/17 04:36:33;;;;;;;34.10;14.93;;;;;;;;;;4840662;29;20057;-66
2021/12/17 04:39:05;;;;;;;18.98;10.80;;;;;;;;;;4839950;29;20030;-65
2021/12/17 04:57:27;;;;;;;24.55;10.43;;;;;;;;;;4840348;29;20042;-70
2021/12/17 04:59:57;;;;;;;17.33;9.90;;;;;;;;;;4855748;29;20569;-71
2021/12/17 05:02:25;;;;;;;23.00;10.98;;;;;;;;;;4841058;29;20045;-71
2021/12/17 05:05:06;;;;;;;31.35;12.85;;;;;;;;;;4841085;29;20541;-72
2021/12/17 05:07:39;;;;;;;27.30;14.13;;;;;;;;;;4840530;29;20037;-74
2021/12/17 05:10:42;;;;;;;23.83;13.23;;;;;;;;;;4840771;29;20038;-67
2021/12/17 05:18:46;;;;;;;34.35;14.43;;;;;;;;;;4863603;29;20045;-67
2021/12/17 05:21:14;;;;;;;28.23;13.25;;;;;;;;;;4845305;29;20454;-68
2021/12/17 05:23:45;;;;;;;40.72;14.93;;;;;;;;;;4840650;29;20441;-67
2021/12/17 05:26:17;;;;;;;28.67;13.10;;;;;;;;;;4843802;29;20038;-68
2021/12/17 05:28:47;;;;;;;31.58;12.85;;;;;;;;;;4860419;29;20133;-66
2021/12/17 05:31:16;;;;;;;36.50;12.43;;;;;;;;;;4842959;29;20513;-68
2021/12/17 05:33:47;;;;;;;24.30;11.02;;;;;;;;;;4849610;29;20089;-67
2021/12/17 05:36:13;;;;;;;23.20;11.65;;;;;;;;;;4848102;29;20105;-69
2021/12/17 05:38:49;;;;;;;27.35;11.95;;;;;;;;;;4855860;29;20052;-67
2021/12/17 05:41:15;;;;;;;35.80;12.80;;;;;;;;;;4848665;29;20033;-70
2021/12/17 05:44:09;;;;;;;26.38;14.57;;;;;;;;;;4848376;29;20367;-68
2021/12/17 05:46:50;;;;;;;25.05;13.10;;;;;;;;;;4848858;29;20044;-68
2021/12/17 05:49:19;;;;;;;33.53;13.85;;;;;;;;;;4858605;29;20041;-67
2021/12/17 05:51:46;;;;;;;31.27;13.00;;;;;;;;;;4858766;29;20033;-67
2021/12/17 05:54:14;;;;;;;26.90;13.25;;;;;;;;;;4858912;29;20090;-67
2021/12/17 05:56:40;;;;;;;29.77;12.60;;;;;;;;;;4859023;29;20033;-67
2021/12/17 05:59:08;;;;;;;27.73;12.77;;;;;;;;;;4858635;29;20038;-67
2021/12/17 06:01:35;;;;;;;26.67;12.70;;;;;;;;;;4857867;29;20021;-68
2021/12/17 06:04:01;;;;;;;24.73;12.55;;;;;;;;;;4858414;29;20618;-68
2021/12/17 06:06:30;;;;;;;33.22;13.80;;;;;;;;;;4858190;29;20097;-67
2021/12/17 06:09:02;;;;;;;29.85;13.75;;;;;;;;;;4858314;29;20413;-71
2021/12/17 06:11:28;;;;;;;35.35;15.55;;;;;;;;;;4858051;29;20044;-68
2021/12/17 06:13:53;;;;;;;38.85;16.77;;;;;;;;;;4858642;29;20030;-69
2021/12/17 06:16:24;;;;;;;32.78;14.48;;;;;;;;;;4856618;29;20104;-67
2021/12/17 06:18:50;;;;;;;27.33;15.38;;;;;;;;;;4857376;29;20049;-69
2021/12/17 06:21:17;;;;;;;32.10;15.90;;;;;;;;;;4858680;29;20041;-67
2021/12/17 06:23:43;;;;;;;40.60;17.55;;;;;;;;;;4858415;29;20034;-67
2021/12/17 06:26:08;;;;;;;35.38;16.48;;;;;;;;;;4858068;29;20032;-70
2021/12/17 06:28:37;;;;;;;34.85;19.08;;;;;;;;;;4858001;29;20049;-67
2021/12/17 06:31:03;;;;;;;37.78;17.83;;;;;;;;;;4858233;29;20050;-73
2021/12/17 06:33:32;;;;;;;36.13;16.15;;;;;;;;;;4858166;29;20037;-69
2021/12/17 06:35:58;;;;;;;30.92;16.23;;;;;;;;;;4859594;29;20106;-75
2021/12/17 06:38:25;;;;;;;32.30;16.00;;;;;;;;;;4856827;29;20437;-69
2021/12/17 06:40:53;;;;;;;29.45;15.23;;;;;;;;;;4858420;29;20036;-73
2021/12/17 06:43:26;;;;;;;32.33;16.45;;;;;;;;;;4858427;29;20044;-74
2021/12/17 06:45:59;;;;;;;22.05;13.45;;;;;;;;;;4858417;29;20084;-70
2021/12/17 06:48:28;;;;;;;29.45;16.15;;;;;;;;;;4858124;29;20124;-70
2021/12/17 07:11:52;;;;;;;40.50;19.05;;;;;;;;;;4858299;29;20047;-67
2021/12/17 07:33:22;;;;;;;29.35;15.00;;;;;;;;;;4860661;29;20038;-68
2021/12/17 07:36:15;;;;;;;27.02;14.20;;;;;;;;;;4857580;29;20045;-67
2021/12/17 07:38:48;;;;;;;19.38;12.68;;;;;;;;;;4856769;29;20502;-68
2021/12/17 07:41:44;;;;;;;21.85;11.50;;;;;;;;;;4837575;29;20046;-68
2021/12/17 07:44:29;;;;;;;20.48;12.80;;;;;;;;;;4841707;29;20668;-69
2021/12/17 07:47:15;;;;;;;21.40;11.18;;;;;;;;;;4843721;29;20102;-68
2021/12/17 07:49:45;;;;;;;23.70;12.32;;;;;;;;;;4842736;29;20049;-68
2021/12/17 07:52:11;;;;;;;20.33;11.38;;;;;;;;;;4843947;29;20497;-67
2021/12/17 07:54:37;;;;;;;27.88;14.93;;;;;;;;;;4842302;29;20030;-69
2021/12/17 07:57:03;;;;;;;17.15;10.52;;;;;;;;;;4844186;29;20493;-67
2021/12/17 07:59:30;;;;;;;22.15;12.18;;;;;;;;;;4842850;29;20030;-69
2021/12/17 08:01:57;;;;;;;22.88;12.88;;;;;;;;;;4842361;29;20105;-70
2021/12/17 08:04:27;;;;;;;18.92;11.82;;;;;;;;;;4842670;29;20098;-68
2021/12/17 08:06:59;;;;;;;30.83;11.57;;;;;;;;;;4841942;29;20034;-69
2021/12/17 08:09:28;;;;;;;22.88;11.77;;;;;;;;;;4842014;29;20057;-69
2021/12/17 08:11:57;;;;;;;18.38;11.85;;;;;;;;;;4842306;29;20057;-70
2021/12/17 08:14:30;;;;;;;23.30;11.07;;;;;;;;;;4842453;29;20042;-69
2021/12/17 08:17:13;;;;;;;19.92;9.77;;;;;;;;;;4842279;29;20034;-71
2021/12/17 08:25:13;;;;;;;18.40;10.90;;;;;;;;;;4843331;29;20038;-68
2021/12/17 08:32:47;;;;;;;22.25;10.13;;;;;;;;;;4859360;29;20489;-74
2021/12/17 08:35:14;;;;;;;15.38;9.18;;;;;;;;;;4871779;29;20389;-70
2021/12/17 08:37:41;;;;;;;17.63;9.07;;;;;;;;;;4860241;29;20040;-76
2021/12/17 08:40:08;;;;;;;15.30;9.05;;;;;;;;;;4875335;29;20042;-68
2021/12/17 08:42:51;;;;;;;21.75;10.02;;;;;;;;;;4859721;29;20086;-71
2021/12/17 08:45:17;;;;;;;22.75;10.98;;;;;;;;;;4859446;29;20089;-72
2021/12/17 08:47:47;;;;;;;14.07;8.68;;;;;;;;;;4861411;29;20048;-70
2021/12/17 08:50:18;;;;;;;12.63;7.88;;;;;;;;;;4859909;29;20048;-71
2021/12/17 08:52:46;;;;;;;14.45;8.57;;;;;;;;;;4875026;29;20034;-72
2021/12/17 08:55:13;;;;;;;18.60;9.00;;;;;;;;;;4857739;29;20148;-68
2021/12/17 08:57:40;;;;;;;14.63;7.85;;;;;;;;;;4853227;29;20504;-70
2021/12/17 09:00:10;;;;;;;13.13;8.77;;;;;;;;;;4858173;29;20132;-69
2021/12/17 09:03:10;;;;;;;17.40;9.48;;;;;;;;;;4856503;29;20505;-70
2021/12/17 09:05:52;;;;;;;19.67;9.80;;;;;;;;;;4859871;29;20061;-68
2021/12/17 09:08:24;;;;;;;16.55;8.85;;;;;;;;;;4856148;29;20405;-73
2021/12/17 09:10:56;;;;;;;13.35;8.32;;;;;;;;;;4873258;29;20499;-72
2021/12/17 09:13:34;;;;;;;16.08;9.93;;;;;;;;;;4859317;29;20030;-69
2021/12/17 09:16:06;;;;;;;17.98;9.75;;;;;;;;;;4857455;29;20045;-72
2021/12/17 09:18:35;;;;;;;;;;;;;;;;;;4841349;29;20045;-69
2021/12/17 09:21:24;;;;;;;14.07;7.43;;;;;;;;;;4839115;29;19916;-72
2021/12/17 09:24:02;;;;;;;16.58;9.05;;;;;;;;;;4840614;29;20406;-70
2021/12/17 09:26:37;;;;;;;13.40;7.38;;;;;;;;;;4840879;29;20096;-74
2021/12/17 09:29:03;;;;;;;13.60;8.75;;;;;;;;;;4847397;29;20042;-74
2021/12/17 09:31:29;;;;;;;19.35;11.02;;;;;;;;;;4851769;29;20045;-70
2021/12/17 09:33:55;;;;;;;22.23;10.15;;;;;;;;;;4852479;29;20045;-73
2021/12/17 09:36:21;;;;;;;19.77;11.02;;;;;;;;;;4847011;29;20033;-71
2021/12/17 09:38:52;;;;;;;20.17;10.23;;;;;;;;;;4851971;29;20050;-73
2021/12/17 09:41:23;;;;;;;15.45;10.02;;;;;;;;;;4841519;29;20071;-71
2021/12/17 09:43:49;;;;;;;16.98;10.93;;;;;;;;;;4841801;29;20038;-68
2021/12/17 09:46:15;;;;;;;18.98;10.20;;;;;;;;;;4841773;29;20105;-73
2021/12/17 09:48:45;;;;;;;17.88;9.65;;;;;;;;;;4841243;29;20038;-71
2021/12/17 09:51:12;;;;;;;17.10;10.30;;;;;;;;;;4841644;29;20090;-67
2021/12/17 09:53:37;;;;;;;17.38;10.48;;;;;;;;;;4841845;29;20053;-72
2021/12/17 09:56:04;;;;;;;22.77;11.63;;;;;;;;;;4842047;29;20095;-73
2021/12/17 09:58:31;;;;;;;28.70;11.82;;;;;;;;;;4841746;29;20030;-73
2021/12/17 10:00:57;;;;;;;17.73;9.77;;;;;;;;;;4841622;29;20565;-68
2021/12/17 10:03:22;;;;;;;16.15;10.27;;;;;;;;;;4841352;29;20045;-70
2021/12/17 10:05:49;;;;;;;21.95;10.32;;;;;;;;;;4841943;29;20037;-71
2021/12/17 10:08:19;;;;;;;22.25;10.15;;;;;;;;;;4841295;29;20050;-70
2021/12/17 10:10:49;;;;;;;23.55;12.80;;;;;;;;;;4841218;29;20045;-72
2021/12/17 10:13:30;;;;;;;16.52;10.70;;;;;;;;;;4841312;29;20093;-70
2021/12/17 10:16:08;;;;;;;18.63;10.63;;;;;;;;;;4840732;29;20080;-71
2021/12/17 10:18:40;;;;;;;16.58;10.48;;;;;;;;;;4841011;29;20034;-72
2021/12/17 10:21:09;;;;;;;19.13;10.00;;;;;;;;;;4841401;29;20038;-71
2021/12/17 10:23:37;;;;;;;15.35;9.85;;;;;;;;;;4857418;29;20057;-73
2021/12/17 10:26:03;;;;;;;23.67;11.05;;;;;;;;;;4855092;29;20493;-72
2021/12/17 10:28:30;;;;;;;18.45;10.63;;;;;;;;;;4857451;29;20504;-69
2021/12/17 10:30:57;;;;;;;17.13;10.10;;;;;;;;;;4859049;29;20101;-71
2021/12/17 10:33:27;;;;;;;21.75;10.73;;;;;;;;;;4859367;29;20480;-71
2021/12/17 10:35:56;;;;;;;16.02;9.77;;;;;;;;;;4859384;29;20045;-74
2021/12/17 10:38:26;;;;;;;20.45;10.10;;;;;;;;;;4850176;29;20037;-74
2021/12/17 10:41:07;;;;;;;18.88;10.77;;;;;;;;;;4840510;29;20098;-73
2021/12/17 10:43:45;;;;;;;20.50;10.57;;;;;;;;;;4840731;29;20053;-73
2021/12/17 10:46:31;;;;;;;18.13;10.52;;;;;;;;;;4840831;29;20555;-75
2021/12/17 10:49:13;;;;;;;14.68;8.98;;;;;;;;;;4840705;29;20478;-72
2021/12/17 10:54:08;;;;;;;17.42;10.25;;;;;;;;;;4857817;29;20117;-76
2021/12/17 10:56:37;;;;;;;15.27;10.27;;;;;;;;;;4858943;29;20038;-73
2021/12/17 10:59:21;;;;;;;20.60;10.75;;;;;;;;;;4859908;29;20041;-70
2021/12/17 11:01:49;;;;;;;17.60;11.52;;;;;;;;;;4862378;29;20120;-69
2021/12/17 11:04:20;;;;;;;14.98;8.90;;;;;;;;;;4861272;29;20058;-70
2021/12/17 11:06:56;;;;;;;18.05;10.02;;;;;;;;;;4862713;29;20042;-76
2021/12/17 11:09:41;;;;;;;19.70;10.15;;;;;;;;;;4862730;29;20136;-72
2021/12/17 11:12:12;;;;;;;16.98;9.93;;;;;;;;;;4862681;29;20396;-73
2021/12/17 11:14:42;;;;;;;17.52;10.10;;;;;;;;;;4861958;29;20132;-70
2021/12/17 11:17:12;;;;;;;16.42;10.25;;;;;;;;;;4862150;29;20565;-71
2021/12/17 11:19:39;;;;;;;12.80;6.95;;;;;;;;;;4861679;29;20140;-71
2021/12/17 11:22:06;;;;;;;10.80;6.60;;;;;;;;;;4862440;29;20029;-70
2021/12/17 11:24:34;;;;;;;11.60;7.10;;;;;;;;;;4862273;29;20080;-70
2021/12/17 11:27:05;;;;;;;15.63;7.07;;;;;;;;;;4862564;29;20506;-72
2021/12/17 11:29:32;;;;;;;12.07;7.25;;;;;;;;;;4862631;29;20057;-74
2021/12/17 11:32:04;;;;;;;18.30;8.82;;;;;;;;;;4861687;29;20034;-72
2021/12/17 11:34:33;;;;;;;9.32;6.05;;;;;;;;;;4862178;29;20128;-71
2021/12/17 11:37:01;;;;;;;7.85;4.97;;;;;;;;;;4861930;29;20056;-72
2021/12/17 11:39:31;;;;;;;13.77;5.30;;;;;;;;;;4861966;29;20052;-71
2021/12/17 11:42:24;;;;;;;8.90;5.35;;;;;;;;;;4862288;29;20069;-70
2021/12/17 11:45:22;;;;;;;8.25;4.80;;;;;;;;;;4861848;29;20057;-72
2021/12/17 11:47:40;;;;;;;7.78;4.85;;;;;;;;;;4862170;29;20048;-72
2021/12/17 11:50:08;;;;;;;11.73;5.75;;;;;;;;;;4862396;29;20033;-71
2021/12/17 11:52:47;;;;;;;10.38;5.97;;;;;;;;;;4862117;29;20029;-71
2021/12/17 11:55:33;;;;;;;6.45;4.50;;;;;;;;;;4862533;29;20038;-74
2021/12/17 11:58:04;;;;;;;12.50;5.22;;;;;;;;;;4861700;29;20485;-73
2021/12/17 12:00:48;;;;;;;13.48;6.95;;;;;;;;;;4862148;29;20068;-72
2021/12/17 12:03:18;;;;;;;15.38;8.77;;;;;;;;;;4861319;29;20434;-70
2021/12/17 12:05:56;;;;;;;13.90;8.38;;;;;;;;;;4860989;29;20041;-72
2021/12/17 12:08:50;;;;;;;12.05;7.30;;;;;;;;;;4861978;29;20045;-72
2021/12/17 12:11:26;;;;;;;9.23;6.15;;;;;;;;;;4862923;29;20042;-74
2021/12/17 12:13:54;;;;;;;10.77;6.43;;;;;;;;;;4861831;29;20041;-71
2021/12/17 12:16:23;;;;;;;10.82;6.68;;;;;;;;;;4862159;29;20029;-68
2021/12/17 12:18:51;;;;;;;10.75;6.88;;;;;;;;;;4861821;29;20055;-73
2021/12/17 12:21:19;;;;;;;10.27;6.30;;;;;;;;;;4861133;29;20033;-69
2021/12/17 12:24:16;;;;;;;11.02;6.75;;;;;;;;;;4861365;29;20059;-69
2021/12/17 12:26:48;;;;;;;12.10;7.55;;;;;;;;;;4857656;29;20094;-69
2021/12/17 12:29:18;;;;;;;13.55;7.40;;;;;;;;;;4851656;29;20038;-70
2021/12/17 12:31:49;;;;;;;11.50;7.40;;;;;;;;;;4843704;29;20041;-73
2021/12/17 12:34:29;;;;;;;11.20;6.68;;;;;;;;;;4861316;29;20039;-75
2021/12/17 12:37:07;;;;;;;10.38;6.97;;;;;;;;;;4861377;29;20045;-72
2021/12/17 12:39:42;;;;;;;12.18;6.90;;;;;;;;;;4861236;29;20166;-71
2021/12/17 12:42:28;;;;;;;16.98;6.63;;;;;;;;;;4844748;29;20038;-71
2021/12/17 12:44:56;;;;;;;10.60;6.82;;;;;;;;;;4843100;29;20053;-73
2021/12/17 12:47:34;;;;;;;12.13;7.25;;;;;;;;;;4842671;29;20038;-71
2021/12/17 12:50:03;;;;;;;13.40;7.57;;;;;;;;;;4842399;29;20046;-75
2021/12/17 12:52:32;;;;;;;9.13;6.45;;;;;;;;;;4842951;29;20117;-74
2021/12/17 12:55:12;;;;;;;9.68;6.32;;;;;;;;;;4842884;29;20049;-72
2021/12/17 12:58:05;;;;;;;11.60;7.03;;;;;;;;;;4842740;29;20042;-73
2021/12/17 13:00:40;;;;;;;15.15;7.07;;;;;;;;;;4837482;29;20080;-73
2021/12/17 13:03:16;;;;;;;14.57;7.38;;;;;;;;;;4842126;29;20056;-75
2021/12/17 13:05:48;;;;;;;19.20;8.43;;;;;;;;;;4842662;29;20065;-69
2021/12/17 13:08:17;;;;;;;16.30;7.75;;;;;;;;;;4843315;29;20046;-71
2021/12/17 13:10:54;;;;;;;14.77;7.28;;;;;;;;;;4843923;29;20097;-75
2021/12/17 13:16:53;;;;;;;19.27;9.88;;;;;;;;;;4841547;29;20038;-73
2021/12/17 13:22:14;;;;;;;11.68;7.05;;;;;;;;;;4842251;29;20117;-73
2021/12/17 13:24:40;;;;;;;17.90;10.40;;;;;;;;;;4841857;29;20422;-69
2021/12/17 13:27:11;;;;;;;12.10;7.05;;;;;;;;;;4841549;29;20113;-72
2021/12/17 13:29:39;;;;;;;10.07;6.05;;;;;;;;;;4842266;29;20057;-72
2021/12/17 13:32:13;;;;;;;13.52;5.50;;;;;;;;;;4842484;29;20038;-72
2021/12/17 13:34:41;;;;;;;17.83;6.63;;;;;;;;;;4842030;29;20121;-71
2021/12/17 13:37:18;;;;;;;17.13;5.55;;;;;;;;;;4842245;29;20033;-72
2021/12/17 13:40:07;;;;;;;12.95;5.88;;;;;;;;;;4841750;29;20030;-69
2021/12/17 13:42:38;;;;;;;7.90;4.68;;;;;;;;;;4841990;29;20398;-74
2021/12/17 13:45:07;;;;;;;10.50;5.28;;;;;;;;;;4842217;29;20102;-71
2021/12/17 13:47:47;;;;;;;14.93;5.95;;;;;;;;;;4841878;29;20082;-70
2021/12/17 13:50:13;;;;;;;24.63;7.20;;;;;;;;;;4842055;29;20439;-73
2021/12/17 13:52:54;;;;;;;10.10;5.00;;;;;;;;;;4841778;29;20090;-69
2021/12/17 13:55:27;;;;;;;13.63;5.53;;;;;;;;;;4842043;29;20038;-74
2021/12/17 13:57:54;;;;;;;11.53;6.97;;;;;;;;;;4841884;29;20083;-73
2021/12/17 14:00:23;;;;;;;14.80;6.88;;;;;;;;;;4841579;29;20112;-69
2021/12/17 14:02:50;;;;;;;12.00;6.60;;;;;;;;;;4841385;29;20038;-70
2021/12/17 14:05:27;;;;;;;15.18;6.13;;;;;;;;;;4841329;29;20079;-70
2021/12/17 14:07:57;;;;;;;14.98;7.20;;;;;;;;;;4841626;29;20587;-73
2021/12/17 14:10:33;;;;;;;20.23;8.10;;;;;;;;;;4841550;29;20034;-70
2021/12/17 14:13:00;;;;;;;14.30;7.50;;;;;;;;;;4841793;29;20501;-69
2021/12/17 14:15:33;;;;;;;18.52;9.75;;;;;;;;;;4841852;29;20040;-71
2021/12/17 14:18:05;;;;;;;21.20;10.15;;;;;;;;;;4841263;29;20048;-71
2021/12/17 14:20:41;;;;;;;17.15;8.85;;;;;;;;;;4841284;29;20050;-73
2021/12/17 14:23:10;;;;;;;16.05;9.00;;;;;;;;;;4841383;29;20494;-72
2021/12/17 14:25:42;;;;;;;14.85;7.93;;;;;;;;;;4855507;29;20034;-71
2021/12/17 14:28:24;;;;;;;16.00;7.97;;;;;;;;;;4840917;29;20050;-71
2021/12/17 14:31:05;;;;;;;24.75;10.88;;;;;;;;;;4841020;29;20037;-69
2021/12/17 14:33:51;;;;;;;25.95;11.38;;;;;;;;;;4841541;29;20079;-68
2021/12/17 14:36:20;;;;;;;35.08;11.90;;;;;;;;;;4859525;29;20061;-68
2021/12/17 14:39:06;;;;;;;22.85;9.18;;;;;;;;;;4840957;29;20112;-69
2021/12/17 14:41:47;;;;;;;17.25;8.10;;;;;;;;;;4841324;29;20038;-69
2021/12/17 14:57:16;;;;;;;14.68;8.25;;;;;;;;;;4859338;29;20045;-69
2021/12/17 15:05:48;;;;;;;17.95;9.30;;;;;;;;;;4859389;29;20508;-68
2021/12/17 15:08:14;;;;;;;20.35;9.50;;;;;;;;;;4859635;29;20048;-70
2021/12/17 15:10:40;;;;;;;16.13;9.30;;;;;;;;;;4858924;29;20037;-69
2021/12/17 15:13:07;;;;;;;18.73;9.43;;;;;;;;;;4859749;29;20037;-71
2021/12/17 15:15:35;;;;;;;14.95;8.63;;;;;;;;;;4859667;29;20038;-69
2021/12/17 15:18:03;;;;;;;15.52;8.63;;;;;;;;;;4859769;29;20040;-72
2021/12/17 15:20:32;;;;;;;19.33;9.25;;;;;;;;;;4859512;29;20485;-71
2021/12/17 15:23:00;;;;;;;15.82;9.18;;;;;;;;;;4859199;29;20421;-77
2021/12/17 15:25:27;;;;;;;20.88;11.40;;;;;;;;;;4858131;29;20053;-73
2021/12/17 15:27:53;;;;;;;17.83;11.63;;;;;;;;;;4859356;29;20537;-72
2021/12/17 15:30:37;;;;;;;22.90;11.48;;;;;;;;;;4859330;29;20400;-75
2021/12/17 15:33:03;;;;;;;18.50;11.13;;;;;;;;;;4859141;29;20389;-69
2021/12/17 15:35:29;;;;;;;18.15;10.88;;;;;;;;;;4858444;29;20066;-71
2021/12/17 15:37:57;;;;;;;17.35;10.95;;;;;;;;;;4859112;29;20057;-74
2021/12/17 15:40:26;;;;;;;16.98;10.40;;;;;;;;;;4860681;29;20036;-71
2021/12/17 15:42:54;;;;;;;18.55;10.95;;;;;;;;;;4862720;29;20553;-73
2021/12/17 15:45:20;;;;;;;24.95;11.27;;;;;;;;;;4855543;29;20074;-70
2021/12/17 15:47:47;;;;;;;21.08;11.90;;;;;;;;;;4860991;29;20125;-72
2021/12/17 15:50:14;;;;;;;21.58;13.75;;;;;;;;;;4861603;29;20081;-70
2021/12/17 15:52:47;;;;;;;18.63;10.65;;;;;;;;;;4861564;29;20045;-71
2021/12/17 15:55:15;;;;;;;21.58;12.05;;;;;;;;;;4861313;29;20122;-71
2021/12/17 15:57:41;;;;;;;25.45;13.05;;;;;;;;;;4861273;29;20124;-69
2021/12/17 16:00:08;;;;;;;19.52;11.85;;;;;;;;;;4860865;29;20053;-70
2021/12/17 16:02:39;;;;;;;31.10;15.65;;;;;;;;;;4860868;29;20049;-70
2021/12/17 16:05:07;;;;;;;35.00;17.48;;;;;;;;;;4861451;29;20042;-76
2021/12/17 16:07:33;;;;;;;38.30;19.15;;;;;;;;;;4861912;29;20113;-71
2021/12/17 16:23:08;;;;;;;34.88;15.63;;;;;;;;;;4861638;29;20433;-71
2021/12/17 16:25:34;;;;;;;44.58;15.57;;;;;;;;;;4859943;29;20034;-70
2021/12/17 16:28:00;;;;;;;45.30;16.92;;;;;;;;;;4860806;29;20052;-66
2021/12/17 16:30:26;;;;;;;54.35;19.38;;;;;;;;;;4860988;29;20473;-68
2021/12/17 16:32:52;;;;;;;51.15;19.05;;;;;;;;;;4860852;29;20128;-67
2021/12/17 16:35:17;;;;;;;60.03;21.15;;;;;;;;;;4853353;29;20112;-66
2021/12/17 16:37:43;;;;;;;49.67;18.30;;;;;;;;;;4850172;29;20049;-67
2021/12/17 16:40:11;;;;;;;64.03;18.88;;;;;;;;;;4854194;29;20064;-66
2021/12/17 16:42:37;;;;;;;46.65;17.38;;;;;;;;;;4847054;29;20081;-67
2021/12/17 16:47:42;;;;;;;44.60;17.35;;;;;;;;;;4860538;29;20048;-67
2021/12/17 16:50:09;;;;;;;44.58;15.63;;;;;;;;;;4860535;29;20025;-66
2021/12/17 16:52:35;;;;;;;42.60;17.33;;;;;;;;;;4860534;29;20042;-67
2021/12/17 16:55:04;;;;;;;44.53;17.95;;;;;;;;;;4860595;29;20038;-66
2021/12/17 16:57:31;;;;;;;40.28;16.33;;;;;;;;;;4861072;29;20057;-66
2021/12/17 16:59:57;;;;;;;44.10;16.95;;;;;;;;;;4860908;29;20461;-68
2021/12/17 17:02:24;;;;;;;34.65;15.27;;;;;;;;;;4860640;29;20049;-67
2021/12/17 17:04:50;;;;;;;36.28;13.95;;;;;;;;;;4860793;29;20386;-67
2021/12/17 17:07:16;;;;;;;29.42;14.27;;;;;;;;;;4860807;29;20034;-67
2021/12/17 17:09:42;;;;;;;39.25;17.83;;;;;;;;;;4860274;29;20038;-67
2021/12/17 17:12:11;;;;;;;49.25;22.27;;;;;;;;;;4860614;29;20041;-67
2021/12/17 17:14:37;;;;;;;33.47;17.02;;;;;;;;;;4860660;29;20544;-67
2021/12/17 17:17:05;;;;;;;29.67;15.88;;;;;;;;;;4860453;29;20037;-67
2021/12/17 17:19:32;;;;;;;37.83;19.13;;;;;;;;;;4860584;29;20025;-66
2021/12/17 17:21:58;;;;;;;37.78;17.77;;;;;;;;;;4859113;29;20412;-67
2021/12/17 17:24:24;;;;;;;32.00;15.30;;;;;;;;;;4860384;29;20022;-68
2021/12/17 17:26:50;;;;;;;27.75;14.55;;;;;;;;;;4863407;29;20041;-67
2021/12/17 17:29:16;;;;;;;35.63;17.92;;;;;;;;;;4852643;29;20466;-66
2021/12/17 17:31:43;;;;;;;38.88;16.25;;;;;;;;;;4832436;29;20061;-66
2021/12/17 17:34:10;;;;;;;30.92;16.42;;;;;;;;;;4823336;29;20130;-67
2021/12/17 17:36:37;;;;;;;56.80;22.73;;;;;;;;;;4822628;29;20074;-67
2021/12/17 17:39:05;;;;;;;39.60;18.05;;;;;;;;;;4822253;29;20070;-66
2021/12/17 17:41:31;;;;;;;41.90;20.05;;;;;;;;;;4822817;29;20054;-67
2021/12/17 17:43:57;;;;;;;43.65;19.85;;;;;;;;;;4821348;29;20106;-66
2021/12/17 17:46:25;;;;;;;39.72;19.58;;;;;;;;;;4822639;29;20038;-67
2021/12/17 17:48:51;;;;;;;37.42;18.35;;;;;;;;;;4823179;29;20471;-67
2021/12/17 17:51:17;;;;;;;39.58;20.05;;;;;;;;;;4822825;29;20061;-69
2021/12/17 17:53:43;;;;;;;41.10;21.83;;;;;;;;;;4822345;29;20058;-68
2021/12/17 17:56:10;;;;;;;39.55;20.10;;;;;;;;;;4822576;29;20436;-66
2021/12/17 17:58:36;;;;;;;55.17;24.75;;;;;;;;;;4822385;29;20031;-68
2021/12/17 18:01:03;;;;;;;47.83;24.83;;;;;;;;;;4822128;29;20202;-68
2021/12/17 18:03:28;;;;;;;40.28;22.92;;;;;;;;;;4821702;29;20046;-68
2021/12/17 18:05:55;;;;;;;43.20;24.85;;;;;;;;;;4822682;29;20467;-67
2021/12/17 18:08:21;;;;;;;46.40;25.33;;;;;;;;;;4822417;29;20058;-68
2021/12/17 18:10:48;;;;;;;53.13;26.92;;;;;;;;;;4822769;29;20142;-69
2021/12/17 18:13:18;;;;;;;55.72;26.48;;;;;;;;;;4824488;29;20386;-68
2021/12/17 18:15:46;;;;;;;47.28;24.95;;;;;;;;;;4839157;29;20784;-67
2021/12/17 18:18:14;;;;;;;46.47;24.15;;;;;;;;;;4839266;29;20389;-68